sensor_id;sensor_type;location;lat;lon;timestamp;pressure;altitude;pressure_sealevel;temperature;humidity
62634;BME280;48704;50.534;6.442;2023-03-18T00:01:27;94848.13;;;8.91;100.00
62634;BME280;48704;50.534;6.442;2023-03-18T00:03:53;94856.00;;;8.93;100.00
62634;BME280;48704;50.534;6.442;2023-03-18T00:06:20;94857.25;;;8.92;100.00
62634;BME280;48704;50.534;6.442;2023-03-18T00:08:47;94850.88;;;8.86;100.00
62634;BME280;48704;50.534;6.442;2023-03-18T00:11:14;94853.38;;;8.84;100.00
62634;BME280;48704;50.534;6.442;2023-03-18T00:13:40;94854.59;;;8.83;100.00
62634;BME280;48704;50.534;6.442;2023-03-18T00:16:07;94856.63;;;8.82;100.00
62634;BME280;48704;50.534;6.442;2023-03-18T00:18:35;94851.25;;;8.79;100.00
62634;BME280;48704;50.534;6.442;2023-03-18T00:21:02;94859.31;;;8.77;100.00
62634;BME280;48704;50.534;6.442;2023-03-18T00:23:28;94867.94;;;8.79;100.00
62634;BME280;48704;50.534;6.442;2023-03-18T00:25:55;94883.63;;;8.82;100.00
62634;BME280;48704;50.534;6.442;2023-03-18T00:28:22;94888.16;;;8.79;100.00
62634;BME280;48704;50.534;6.442;2023-03-18T00:30:48;94884.13;;;8.80;100.00
62634;BME280;48704;50.534;6.442;2023-03-18T00:33:14;94877.16;;;8.70;100.00
62634;BME280;48704;50.534;6.442;2023-03-18T00:35:40;94873.13;;;8.71;100.00
62634;BME280;48704;50.534;6.442;2023-03-18T00:38:07;94863.47;;;8.66;100.00
62634;BME280;48704;50.534;6.442;2023-03-18T00:40:35;94858.28;;;8.59;100.00
62634;BME280;48704;50.534;6.442;2023-03-18T00:43:21;94859.25;;;8.56;100.00
62634;BME280;48704;50.534;6.442;2023-03-18T00:45:49;94873.91;;;8.57;100.00
62634;BME280;48704;50.534;6.442;2023-03-18T00:48:16;94879.88;;;8.50;100.00
62634;BME280;48704;50.534;6.442;2023-03-18T00:50:42;94877.00;;;8.44;100.00
62634;BME280;48704;50.534;6.442;2023-03-18T00:53:09;94890.31;;;8.40;100.00
62634;BME280;48704;50.534;6.442;2023-03-18T00:55:34;94892.91;;;8.44;100.00
62634;BME280;48704;50.534;6.442;2023-03-18T00:57:59;94879.59;;;8.48;100.00
62634;BME280;48704;50.534;6.442;2023-03-18T01:00:26;94874.25;;;8.44;100.00
62634;BME280;48704;50.534;6.442;2023-03-18T01:02:51;94873.38;;;8.38;100.00
62634;BME280;48704;50.534;6.442;2023-03-18T01:05:17;94867.63;;;8.42;100.00
62634;BME280;48704;50.534;6.442;2023-03-18T01:07:42;94872.44;;;8.41;100.00
62634;BME280;48704;50.534;6.442;2023-03-18T01:10:09;94874.34;;;8.50;100.00
62634;BME280;48704;50.534;6.442;2023-03-18T01:12:35;94880.66;;;8.50;100.00
62634;BME280;48704;50.534;6.442;2023-03-18T01:15:01;94867.44;;;8.45;100.00
62634;BME280;48704;50.534;6.442;2023-03-18T01:17:27;94858.84;;;8.43;100.00
62634;BME280;48704;50.534;6.442;2023-03-18T01:19:52;94861.59;;;8.43;100.00
62634;BME280;48704;50.534;6.442;2023-03-18T01:22:18;94862.84;;;8.42;100.00
62634;BME280;48704;50.534;6.442;2023-03-18T01:24:43;94865.06;;;8.38;100.00
62634;BME280;48704;50.534;6.442;2023-03-18T01:27:10;94870.91;;;8.40;100.00
62634;BME280;48704;50.534;6.442;2023-03-18T01:29:36;94865.34;;;8.40;100.00
62634;BME280;48704;50.534;6.442;2023-03-18T01:32:02;94861.72;;;8.34;100.00
62634;BME280;48704;50.534;6.442;2023-03-18T01:34:27;94857.75;;;8.26;100.00
62634;BME280;48704;50.534;6.442;2023-03-18T01:36:53;94849.06;;;8.18;100.00
62634;BME280;48704;50.534;6.442;2023-03-18T01:39:20;94849.47;;;8.11;100.00
62634;BME280;48704;50.534;6.442;2023-03-18T01:41:46;94846.22;;;8.13;100.00
62634;BME280;48704;50.534;6.442;2023-03-18T01:44:21;94846.50;;;8.15;100.00
62634;BME280;48704;50.534;6.442;2023-03-18T01:46:48;94852.53;;;8.13;100.00
62634;BME280;48704;50.534;6.442;2023-03-18T01:49:20;94847.44;;;7.97;100.00
62634;BME280;48704;50.534;6.442;2023-03-18T01:52:02;94847.56;;;8.02;100.00
62634;BME280;48704;50.534;6.442;2023-03-18T01:54:32;94845.53;;;8.03;100.00
62634;BME280;48704;50.534;6.442;2023-03-18T01:56:58;94846.97;;;7.98;100.00
62634;BME280;48704;50.534;6.442;2023-03-18T01:59:26;94841.91;;;7.82;100.00
62634;BME280;48704;50.534;6.442;2023-03-18T02:01:57;94839.41;;;7.84;100.00
62634;BME280;48704;50.534;6.442;2023-03-18T02:04:29;94846.97;;;7.84;100.00
62634;BME280;48704;50.534;6.442;2023-03-18T02:06:57;94851.97;;;7.80;100.00
62634;BME280;48704;50.534;6.442;2023-03-18T02:09:22;94851.56;;;7.87;100.00
62634;BME280;48704;50.534;6.442;2023-03-18T02:11:49;94847.91;;;7.81;100.00
62634;BME280;48704;50.534;6.442;2023-03-18T02:14:20;94847.72;;;7.84;100.00
62634;BME280;48704;50.534;6.442;2023-03-18T02:19:52;94852.34;;;7.72;100.00
62634;BME280;48704;50.534;6.442;2023-03-18T02:22:25;94849.84;;;7.75;100.00
62634;BME280;48704;50.534;6.442;2023-03-18T02:25:12;94850.03;;;7.71;100.00
62634;BME280;48704;50.534;6.442;2023-03-18T02:27:48;94854.44;;;7.78;100.00
62634;BME280;48704;50.534;6.442;2023-03-18T02:30:18;94850.63;;;7.75;100.00
62634;BME280;48704;50.534;6.442;2023-03-18T02:32:47;94852.72;;;7.65;100.00
62634;BME280;48704;50.534;6.442;2023-03-18T02:35:14;94848.69;;;7.66;100.00
62634;BME280;48704;50.534;6.442;2023-03-18T02:37:40;94854.06;;;7.70;100.00
62634;BME280;48704;50.534;6.442;2023-03-18T02:42:38;94849.16;;;7.65;100.00
62634;BME280;48704;50.534;6.442;2023-03-18T02:45:07;94848.88;;;7.63;100.00
62634;BME280;48704;50.534;6.442;2023-03-18T02:47:34;94862.44;;;7.61;100.00
62634;BME280;48704;50.534;6.442;2023-03-18T02:50:00;94858.16;;;7.60;100.00
62634;BME280;48704;50.534;6.442;2023-03-18T02:52:25;94866.16;;;7.58;100.00
62634;BME280;48704;50.534;6.442;2023-03-18T02:54:51;94861.56;;;7.55;100.00
62634;BME280;48704;50.534;6.442;2023-03-18T02:57:17;94855.16;;;7.49;100.00
62634;BME280;48704;50.534;6.442;2023-03-18T02:59:42;94866.81;;;7.53;100.00
62634;BME280;48704;50.534;6.442;2023-03-18T03:02:07;94871.44;;;7.56;100.00
62634;BME280;48704;50.534;6.442;2023-03-18T03:04:33;94871.19;;;7.45;100.00
62634;BME280;48704;50.534;6.442;2023-03-18T03:06:58;94870.25;;;7.48;100.00
62634;BME280;48704;50.534;6.442;2023-03-18T03:09:25;94867.19;;;7.46;100.00
62634;BME280;48704;50.534;6.442;2023-03-18T03:11:50;94870.66;;;7.41;100.00
62634;BME280;48704;50.534;6.442;2023-03-18T03:14:16;94876.19;;;7.41;100.00
62634;BME280;48704;50.534;6.442;2023-03-18T03:16:42;94875.22;;;7.44;100.00
62634;BME280;48704;50.534;6.442;2023-03-18T03:19:08;94879.91;;;7.37;100.00
62634;BME280;48704;50.534;6.442;2023-03-18T03:21:34;94878.09;;;7.34;100.00
62634;BME280;48704;50.534;6.442;2023-03-18T03:24:01;94883.03;;;7.30;100.00
62634;BME280;48704;50.534;6.442;2023-03-18T03:26:28;94889.59;;;7.18;100.00
62634;BME280;48704;50.534;6.442;2023-03-18T03:28:53;94888.94;;;7.23;100.00
62634;BME280;48704;50.534;6.442;2023-03-18T03:31:19;94891.06;;;7.28;100.00
62634;BME280;48704;50.534;6.442;2023-03-18T03:33:44;94893.72;;;7.23;100.00
62634;BME280;48704;50.534;6.442;2023-03-18T03:36:12;94889.34;;;7.31;100.00
62634;BME280;48704;50.534;6.442;2023-03-18T03:38:37;94894.13;;;7.30;100.00
62634;BME280;48704;50.534;6.442;2023-03-18T03:41:03;94890.47;;;7.24;100.00
62634;BME280;48704;50.534;6.442;2023-03-18T03:43:30;94892.28;;;7.27;100.00
62634;BME280;48704;50.534;6.442;2023-03-18T03:45:55;94892.59;;;7.29;100.00
62634;BME280;48704;50.534;6.442;2023-03-18T03:48:20;94902.13;;;7.28;100.00
62634;BME280;48704;50.534;6.442;2023-03-18T03:50:46;94894.41;;;7.32;100.00
62634;BME280;48704;50.534;6.442;2023-03-18T03:53:12;94905.97;;;7.31;100.00
62634;BME280;48704;50.534;6.442;2023-03-18T03:55:37;94901.13;;;7.41;100.00
62634;BME280;48704;50.534;6.442;2023-03-18T03:58:03;94912.50;;;7.43;100.00
62634;BME280;48704;50.534;6.442;2023-03-18T04:00:28;94906.75;;;7.46;100.00
62634;BME280;48704;50.534;6.442;2023-03-18T04:02:54;94903.53;;;7.48;100.00
62634;BME280;48704;50.534;6.442;2023-03-18T04:05:21;94917.38;;;7.48;100.00
62634;BME280;48704;50.534;6.442;2023-03-18T04:07:47;94922.63;;;7.46;100.00
62634;BME280;48704;50.534;6.442;2023-03-18T04:10:15;94918.03;;;7.43;100.00
62634;BME280;48704;50.534;6.442;2023-03-18T04:12:43;94922.25;;;7.38;100.00
62634;BME280;48704;50.534;6.442;2023-03-18T04:15:10;94927.03;;;7.37;100.00
62634;BME280;48704;50.534;6.442;2023-03-18T04:17:36;94932.38;;;7.41;100.00
62634;BME280;48704;50.534;6.442;2023-03-18T04:20:02;94932.28;;;7.35;100.00
62634;BME280;48704;50.534;6.442;2023-03-18T04:22:30;94931.03;;;7.36;100.00
62634;BME280;48704;50.534;6.442;2023-03-18T04:24:55;94935.03;;;7.35;100.00
62634;BME280;48704;50.534;6.442;2023-03-18T04:27:20;94928.72;;;7.35;100.00
62634;BME280;48704;50.534;6.442;2023-03-18T04:29:47;94942.28;;;7.33;100.00
62634;BME280;48704;50.534;6.442;2023-03-18T04:32:12;94931.97;;;7.33;100.00
62634;BME280;48704;50.534;6.442;2023-03-18T04:34:38;94938.09;;;7.37;100.00
62634;BME280;48704;50.534;6.442;2023-03-18T04:37:03;94948.44;;;7.37;100.00
62634;BME280;48704;50.534;6.442;2023-03-18T04:39:29;94950.50;;;7.27;100.00
62634;BME280;48704;50.534;6.442;2023-03-18T04:41:54;94949.53;;;7.30;100.00
62634;BME280;48704;50.534;6.442;2023-03-18T04:44:21;94946.47;;;7.28;100.00
62634;BME280;48704;50.534;6.442;2023-03-18T04:46:47;94952.97;;;7.25;100.00
62634;BME280;48704;50.534;6.442;2023-03-18T04:49:12;94955.44;;;7.23;100.00
62634;BME280;48704;50.534;6.442;2023-03-18T04:51:38;94955.44;;;7.23;100.00
62634;BME280;48704;50.534;6.442;2023-03-18T04:54:03;94955.78;;;7.16;100.00
62634;BME280;48704;50.534;6.442;2023-03-18T04:56:28;94944.75;;;7.07;100.00
62634;BME280;48704;50.534;6.442;2023-03-18T04:58:55;94948.28;;;7.08;100.00
62634;BME280;48704;50.534;6.442;2023-03-18T05:01:21;94943.50;;;7.08;100.00
62634;BME280;48704;50.534;6.442;2023-03-18T05:03:46;94940.75;;;7.08;100.00
62634;BME280;48704;50.534;6.442;2023-03-18T05:06:23;94945.03;;;7.09;100.00
62634;BME280;48704;50.534;6.442;2023-03-18T05:08:49;94940.63;;;7.02;100.00
62634;BME280;48704;50.534;6.442;2023-03-18T05:11:16;94939.88;;;7.02;100.00
62634;BME280;48704;50.534;6.442;2023-03-18T05:13:41;94944.06;;;6.97;100.00
62634;BME280;48704;50.534;6.442;2023-03-18T05:16:06;94952.50;;;7.03;100.00
62634;BME280;48704;50.534;6.442;2023-03-18T05:18:34;94942.94;;;7.04;100.00
62634;BME280;48704;50.534;6.442;2023-03-18T05:20:59;94941.41;;;7.03;100.00
62634;BME280;48704;50.534;6.442;2023-03-18T05:23:24;94935.28;;;6.99;100.00
62634;BME280;48704;50.534;6.442;2023-03-18T05:25:50;94948.22;;;6.93;100.00
62634;BME280;48704;50.534;6.442;2023-03-18T05:28:15;94948.81;;;6.97;100.00
62634;BME280;48704;50.534;6.442;2023-03-18T05:30:42;94952.41;;;6.88;100.00
62634;BME280;48704;50.534;6.442;2023-03-18T05:33:07;94946.53;;;6.95;100.00
62634;BME280;48704;50.534;6.442;2023-03-18T05:35:33;94952.81;;;6.96;100.00
62634;BME280;48704;50.534;6.442;2023-03-18T05:37:58;94947.47;;;6.92;100.00
62634;BME280;48704;50.534;6.442;2023-03-18T05:40:23;94945.16;;;6.91;100.00
62634;BME280;48704;50.534;6.442;2023-03-18T05:42:48;94953.75;;;6.93;100.00
62634;BME280;48704;50.534;6.442;2023-03-18T05:45:14;94952.28;;;6.83;100.00
62634;BME280;48704;50.534;6.442;2023-03-18T05:47:39;94951.44;;;7.00;100.00
62634;BME280;48704;50.534;6.442;2023-03-18T05:50:05;94952.97;;;7.01;100.00
62634;BME280;48704;50.534;6.442;2023-03-18T05:52:30;94946.94;;;7.03;100.00
62634;BME280;48704;50.534;6.442;2023-03-18T05:54:56;94955.56;;;7.05;100.00
62634;BME280;48704;50.534;6.442;2023-03-18T05:57:21;94955.56;;;7.05;100.00
62634;BME280;48704;50.534;6.442;2023-03-18T05:59:47;94952.19;;;7.01;100.00
62634;BME280;48704;50.534;6.442;2023-03-18T06:02:12;94945.22;;;7.05;100.00
62634;BME280;48704;50.534;6.442;2023-03-18T06:04:38;94958.03;;;7.03;100.00
62634;BME280;48704;50.534;6.442;2023-03-18T06:07:04;94943.72;;;7.04;100.00
62634;BME280;48704;50.534;6.442;2023-03-18T06:09:30;94945.41;;;7.02;100.00
62634;BME280;48704;50.534;6.442;2023-03-18T06:11:57;94937.41;;;7.04;100.00
62634;BME280;48704;50.534;6.442;2023-03-18T06:14:23;94943.72;;;7.04;100.00
62634;BME280;48704;50.534;6.442;2023-03-18T06:16:53;94942.28;;;7.09;100.00
62634;BME280;48704;50.534;6.442;2023-03-18T06:19:19;94941.63;;;7.14;100.00
62634;BME280;48704;50.534;6.442;2023-03-18T06:21:46;94948.72;;;7.15;100.00
62634;BME280;48704;50.534;6.442;2023-03-18T06:24:11;94959.78;;;7.15;100.00
62634;BME280;48704;50.534;6.442;2023-03-18T06:26:39;94948.13;;;7.11;100.00
62634;BME280;48704;50.534;6.442;2023-03-18T06:29:05;94962.84;;;7.17;100.00
62634;BME280;48704;50.534;6.442;2023-03-18T06:31:32;94958.97;;;7.24;100.00
62634;BME280;48704;50.534;6.442;2023-03-18T06:33:57;94964.81;;;7.26;100.00
62634;BME280;48704;50.534;6.442;2023-03-18T06:36:23;94963.69;;;7.32;100.00
62634;BME280;48704;50.534;6.442;2023-03-18T06:38:48;94968.91;;;7.40;100.00
62634;BME280;48704;50.534;6.442;2023-03-18T06:41:15;94978.28;;;7.42;100.00
62634;BME280;48704;50.534;6.442;2023-03-18T06:43:40;94984.00;;;7.38;100.00
62634;BME280;48704;50.534;6.442;2023-03-18T06:46:05;94977.78;;;7.44;100.00
62634;BME280;48704;50.534;6.442;2023-03-18T06:48:31;94968.34;;;7.50;100.00
62634;BME280;48704;50.534;6.442;2023-03-18T06:50:57;94969.41;;;7.53;100.00
62634;BME280;48704;50.534;6.442;2023-03-18T06:53:22;94973.13;;;7.50;100.00
62634;BME280;48704;50.534;6.442;2023-03-18T06:55:48;94972.66;;;7.51;100.00
62634;BME280;48704;50.534;6.442;2023-03-18T06:58:13;94974.47;;;7.54;100.00
62634;BME280;48704;50.534;6.442;2023-03-18T07:00:39;94983.19;;;7.62;100.00
62634;BME280;48704;50.534;6.442;2023-03-18T07:03:06;94972.94;;;7.53;100.00
62634;BME280;48704;50.534;6.442;2023-03-18T07:05:31;94980.19;;;7.51;100.00
62634;BME280;48704;50.534;6.442;2023-03-18T07:07:57;94984.78;;;7.54;100.00
62634;BME280;48704;50.534;6.442;2023-03-18T07:10:27;94979.97;;;7.63;100.00
62634;BME280;48704;50.534;6.442;2023-03-18T07:12:53;94972.69;;;7.66;100.00
62634;BME280;48704;50.534;6.442;2023-03-18T07:15:20;94995.88;;;7.54;100.00
62634;BME280;48704;50.534;6.442;2023-03-18T07:17:47;94987.56;;;7.54;100.00
62634;BME280;48704;50.534;6.442;2023-03-18T07:20:13;95004.50;;;7.56;100.00
62634;BME280;48704;50.534;6.442;2023-03-18T07:22:39;94999.91;;;7.53;100.00
62634;BME280;48704;50.534;6.442;2023-03-18T07:25:05;95004.50;;;7.56;100.00
62634;BME280;48704;50.534;6.442;2023-03-18T07:27:31;95020.78;;;7.63;100.00
62634;BME280;48704;50.534;6.442;2023-03-18T07:29:57;95012.47;;;7.63;100.00
62634;BME280;48704;50.534;6.442;2023-03-18T07:32:22;95011.06;;;7.67;100.00
62634;BME280;48704;50.534;6.442;2023-03-18T07:34:48;95017.41;;;7.83;100.00
62634;BME280;48704;50.534;6.442;2023-03-18T07:37:14;95017.41;;;7.83;100.00
62634;BME280;48704;50.534;6.442;2023-03-18T07:39:39;95013.19;;;7.87;100.00
62634;BME280;48704;50.534;6.442;2023-03-18T07:42:05;95019.34;;;7.91;100.00
62634;BME280;48704;50.534;6.442;2023-03-18T07:44:30;95023.06;;;7.88;100.00
62634;BME280;48704;50.534;6.442;2023-03-18T07:46:56;95020.22;;;7.97;100.00
62634;BME280;48704;50.534;6.442;2023-03-18T07:49:22;95029.13;;;8.01;100.00
62634;BME280;48704;50.534;6.442;2023-03-18T07:51:48;95044.84;;;8.04;100.00
62634;BME280;48704;50.534;6.442;2023-03-18T07:54:14;95038.44;;;8.13;100.00
62634;BME280;48704;50.534;6.442;2023-03-18T07:56:39;95041.03;;;8.17;100.00
62634;BME280;48704;50.534;6.442;2023-03-18T07:59:04;95032.97;;;8.19;100.00
62634;BME280;48704;50.534;6.442;2023-03-18T08:01:29;95027.66;;;8.30;100.00
62634;BME280;48704;50.534;6.442;2023-03-18T08:03:55;95028.84;;;8.38;100.00
62634;BME280;48704;50.534;6.442;2023-03-18T08:06:20;95042.25;;;8.54;100.00
62634;BME280;48704;50.534;6.442;2023-03-18T08:08:46;95035.94;;;8.68;100.00
62634;BME280;48704;50.534;6.442;2023-03-18T08:11:13;95030.00;;;8.76;100.00
62634;BME280;48704;50.534;6.442;2023-03-18T08:13:38;95038.16;;;8.79;100.00
62634;BME280;48704;50.534;6.442;2023-03-18T08:16:04;95027.28;;;8.96;100.00
62634;BME280;48704;50.534;6.442;2023-03-18T08:18:30;95028.84;;;8.97;100.00
62634;BME280;48704;50.534;6.442;2023-03-18T08:20:55;95031.22;;;9.04;100.00
62634;BME280;48704;50.534;6.442;2023-03-18T08:23:22;95025.00;;;9.09;100.00
62634;BME280;48704;50.534;6.442;2023-03-18T08:25:49;95033.03;;;9.22;100.00
62634;BME280;48704;50.534;6.442;2023-03-18T08:28:15;95023.78;;;9.30;100.00
62634;BME280;48704;50.534;6.442;2023-03-18T08:30:41;95028.22;;;9.22;100.00
62634;BME280;48704;50.534;6.442;2023-03-18T08:33:07;95034.91;;;9.30;100.00
62634;BME280;48704;50.534;6.442;2023-03-18T08:35:33;95034.00;;;9.54;100.00
62634;BME280;48704;50.534;6.442;2023-03-18T08:37:59;95041.38;;;9.57;100.00
62634;BME280;48704;50.534;6.442;2023-03-18T08:40:24;95048.09;;;9.50;100.00
62634;BME280;48704;50.534;6.442;2023-03-18T08:42:50;95051.53;;;9.60;100.00
62634;BME280;48704;50.534;6.442;2023-03-18T08:45:16;95051.38;;;9.49;100.00
62634;BME280;48704;50.534;6.442;2023-03-18T08:47:42;95048.81;;;9.65;100.00
62634;BME280;48704;50.534;6.442;2023-03-18T08:50:08;95051.09;;;9.67;100.00
62634;BME280;48704;50.534;6.442;2023-03-18T08:52:33;95052.22;;;9.75;100.00
62634;BME280;48704;50.534;6.442;2023-03-18T08:54:59;95061.16;;;9.99;100.00
62634;BME280;48704;50.534;6.442;2023-03-18T08:57:24;95060.16;;;10.02;100.00
62634;BME280;48704;50.534;6.442;2023-03-18T08:59:50;95059.19;;;10.05;100.00
62634;BME280;48704;50.534;6.442;2023-03-18T09:02:16;95060.31;;;9.93;100.00
62634;BME280;48704;50.534;6.442;2023-03-18T09:04:42;95061.00;;;9.88;100.00
62634;BME280;48704;50.534;6.442;2023-03-18T09:07:07;95062.34;;;9.93;100.00
62634;BME280;48704;50.534;6.442;2023-03-18T09:09:33;95054.06;;;9.98;100.00
62634;BME280;48704;50.534;6.442;2023-03-18T09:11:58;95058.66;;;10.22;100.00
62634;BME280;48704;50.534;6.442;2023-03-18T09:14:23;95058.09;;;10.38;100.00
62634;BME280;48704;50.534;6.442;2023-03-18T09:16:49;95055.28;;;10.58;100.00
62634;BME280;48704;50.534;6.442;2023-03-18T09:19:15;95056.81;;;10.85;100.00
62634;BME280;48704;50.534;6.442;2023-03-18T09:21:40;95055.47;;;10.81;100.00
62634;BME280;48704;50.534;6.442;2023-03-18T09:24:06;95059.38;;;11.20;100.00
62634;BME280;48704;50.534;6.442;2023-03-18T09:26:31;95059.16;;;11.24;100.00
62634;BME280;48704;50.534;6.442;2023-03-18T09:28:56;95054.53;;;11.15;100.00
62634;BME280;48704;50.534;6.442;2023-03-18T09:31:22;95060.91;;;11.21;100.00
62634;BME280;48704;50.534;6.442;2023-03-18T09:33:47;95059.31;;;11.41;100.00
62634;BME280;48704;50.534;6.442;2023-03-18T09:36:12;95063.66;;;11.47;100.00
62634;BME280;48704;50.534;6.442;2023-03-18T09:38:37;95071.91;;;11.67;100.00
62634;BME280;48704;50.534;6.442;2023-03-18T09:46:11;95072.88;;;12.55;100.00
62634;BME280;48704;50.534;6.442;2023-03-18T09:54:03;95078.81;;;12.91;100.00
62634;BME280;48704;50.534;6.442;2023-03-18T09:56:33;95079.59;;;13.14;100.00
62634;BME280;48704;50.534;6.442;2023-03-18T09:59:18;95079.53;;;12.80;100.00
62634;BME280;48704;50.534;6.442;2023-03-18T10:01:49;95078.81;;;13.13;100.00
62634;BME280;48704;50.534;6.442;2023-03-18T10:07:21;95091.81;;;13.83;100.00
62634;BME280;48704;50.534;6.442;2023-03-18T10:09:52;95085.69;;;14.01;100.00
62634;BME280;48704;50.534;6.442;2023-03-18T10:12:35;95094.50;;;14.28;100.00
62634;BME280;48704;50.534;6.442;2023-03-18T10:17:49;95095.25;;;14.97;100.00
62634;BME280;48704;50.534;6.442;2023-03-18T10:20:51;95102.66;;;12.75;100.00
62634;BME280;48704;50.534;6.442;2023-03-18T10:26:20;95088.91;;;14.22;100.00
62634;BME280;48704;50.534;6.442;2023-03-18T10:29:02;95101.25;;;13.63;100.00
62634;BME280;48704;50.534;6.442;2023-03-18T10:31:46;95093.81;;;13.10;100.00
62634;BME280;48704;50.534;6.442;2023-03-18T10:34:21;95094.59;;;12.99;100.00
62634;BME280;48704;50.534;6.442;2023-03-18T10:39:25;95091.06;;;13.38;100.00
62634;BME280;48704;50.534;6.442;2023-03-18T10:41:53;95097.88;;;14.10;100.00
62634;BME280;48704;50.534;6.442;2023-03-18T10:44:21;95103.03;;;13.55;100.00
62634;BME280;48704;50.534;6.442;2023-03-18T10:47:03;95102.53;;;13.46;100.00
62634;BME280;48704;50.534;6.442;2023-03-18T10:49:45;95099.72;;;13.29;100.00
62634;BME280;48704;50.534;6.442;2023-03-18T10:55:22;95102.66;;;12.75;100.00
62634;BME280;48704;50.534;6.442;2023-03-18T10:57:51;95100.25;;;12.40;100.00
62634;BME280;48704;50.534;6.442;2023-03-18T11:02:53;95096.75;;;12.56;100.00
62634;BME280;48704;50.534;6.442;2023-03-18T11:05:37;95094.28;;;12.81;100.00
62634;BME280;48704;50.534;6.442;2023-03-18T11:08:07;95088.72;;;12.92;100.00
62634;BME280;48704;50.534;6.442;2023-03-18T11:10:53;95100.50;;;13.63;100.00
62634;BME280;48704;50.534;6.442;2023-03-18T11:13:19;95081.53;;;14.25;100.00
62634;BME280;48704;50.534;6.442;2023-03-18T11:15:54;95080.84;;;14.02;99.94
62634;BME280;48704;50.534;6.442;2023-03-18T11:18:26;95082.63;;;13.99;100.00
62634;BME280;48704;50.534;6.442;2023-03-18T11:20:56;95076.75;;;15.19;98.05
62634;BME280;48704;50.534;6.442;2023-03-18T11:26:42;95075.19;;;15.59;91.22
62634;BME280;48704;50.534;6.442;2023-03-18T11:29:24;95078.78;;;15.54;92.49
62634;BME280;48704;50.534;6.442;2023-03-18T11:31:55;95079.31;;;14.76;95.96
62634;BME280;48704;50.534;6.442;2023-03-18T11:34:30;95068.00;;;14.87;96.08
62634;BME280;48704;50.534;6.442;2023-03-18T11:37:09;95067.22;;;14.92;95.88
62634;BME280;48704;50.534;6.442;2023-03-18T11:39:39;95072.78;;;15.03;96.17
62634;BME280;48704;50.534;6.442;2023-03-18T11:42:20;95067.78;;;14.16;100.00
62634;BME280;48704;50.534;6.442;2023-03-18T11:44:47;95078.56;;;13.89;100.00
62634;BME280;48704;50.534;6.442;2023-03-18T11:47:25;95071.63;;;14.13;100.00
62634;BME280;48704;50.534;6.442;2023-03-18T11:49:52;95079.13;;;13.60;100.00
62634;BME280;48704;50.534;6.442;2023-03-18T11:52:30;95068.97;;;13.34;100.00
62634;BME280;48704;50.534;6.442;2023-03-18T12:00:36;95070.16;;;13.05;100.00
62634;BME280;48704;50.534;6.442;2023-03-18T12:08:48;95065.38;;;13.62;100.00
62634;BME280;48704;50.534;6.442;2023-03-18T12:11:34;95061.69;;;14.12;100.00
62634;BME280;48704;50.534;6.442;2023-03-18T12:14:26;95063.09;;;13.44;100.00
62634;BME280;48704;50.534;6.442;2023-03-18T12:20:09;95060.75;;;13.81;100.00
62634;BME280;48704;50.534;6.442;2023-03-18T12:31:24;95055.31;;;15.51;93.23
62634;BME280;48704;50.534;6.442;2023-03-18T12:34:01;95055.97;;;16.17;90.11
62634;BME280;48704;50.534;6.442;2023-03-18T12:36:44;95049.84;;;15.34;91.65
62634;BME280;48704;50.534;6.442;2023-03-18T12:45:11;95057.75;;;13.23;100.00
62634;BME280;48704;50.534;6.442;2023-03-18T12:47:43;95056.72;;;13.37;100.00
62634;BME280;48704;50.534;6.442;2023-03-18T12:50:17;95066.16;;;13.34;100.00
62634;BME280;48704;50.534;6.442;2023-03-18T12:52:49;95059.22;;;12.85;100.00
62634;BME280;48704;50.534;6.442;2023-03-18T12:55:32;95068.72;;;12.34;100.00
62634;BME280;48704;50.534;6.442;2023-03-18T13:00:48;95067.34;;;12.78;100.00
62634;BME280;48704;50.534;6.442;2023-03-18T13:17:02;95065.91;;;13.32;100.00
62634;BME280;48704;50.534;6.442;2023-03-18T13:19:29;95054.91;;;12.90;100.00
62634;BME280;48704;50.534;6.442;2023-03-18T13:22:11;95061.81;;;13.17;100.00
62634;BME280;48704;50.534;6.442;2023-03-18T13:24:48;95055.19;;;13.48;100.00
62634;BME280;48704;50.534;6.442;2023-03-18T13:30:23;95059.81;;;13.28;100.00
62634;BME280;48704;50.534;6.442;2023-03-18T13:33:06;95064.13;;;13.29;100.00
62634;BME280;48704;50.534;6.442;2023-03-18T13:44:02;95054.19;;;13.17;100.00
62634;BME280;48704;50.534;6.442;2023-03-18T13:46:31;95059.47;;;13.04;100.00
62634;BME280;48704;50.534;6.442;2023-03-18T13:48:59;95053.63;;;13.02;100.00
62634;BME280;48704;50.534;6.442;2023-03-18T13:53:53;95055.72;;;13.63;100.00
62634;BME280;48704;50.534;6.442;2023-03-18T13:59:05;95049.69;;;14.28;96.16
62634;BME280;48704;50.534;6.442;2023-03-18T14:01:33;95055.97;;;13.37;99.23
62634;BME280;48704;50.534;6.442;2023-03-18T14:04:28;95057.66;;;14.01;96.65
62634;BME280;48704;50.534;6.442;2023-03-18T14:07:18;95046.28;;;12.99;100.00
62634;BME280;48704;50.534;6.442;2023-03-18T14:10:17;95043.06;;;14.20;94.66
62634;BME280;48704;50.534;6.442;2023-03-18T14:12:43;95035.97;;;14.77;94.17
62634;BME280;48704;50.534;6.442;2023-03-18T14:17:46;95033.16;;;14.77;89.50
62634;BME280;48704;50.534;6.442;2023-03-18T14:22:45;95025.88;;;15.63;81.36
62634;BME280;48704;50.534;6.442;2023-03-18T14:28:34;95028.00;;;15.22;83.13
62634;BME280;48704;50.534;6.442;2023-03-18T14:40:55;95035.88;;;13.50;92.68
62634;BME280;48704;50.534;6.442;2023-03-18T14:43:33;95034.91;;;15.51;81.67
62634;BME280;48704;50.534;6.442;2023-03-18T14:46:11;95023.22;;;14.76;83.68
62634;BME280;48704;50.534;6.442;2023-03-18T14:48:39;95025.44;;;14.47;84.12
62634;BME280;48704;50.534;6.442;2023-03-18T14:51:14;95027.09;;;14.03;86.48
62634;BME280;48704;50.534;6.442;2023-03-18T14:53:49;95032.38;;;14.24;86.86
62634;BME280;48704;50.534;6.442;2023-03-18T14:56:21;95035.38;;;15.55;80.43
62634;BME280;48704;50.534;6.442;2023-03-18T14:58:50;95025.56;;;17.79;70.34
62634;BME280;48704;50.534;6.442;2023-03-18T15:01:21;95027.31;;;18.35;63.45